sensor_id;sensor_type;location;lat;lon;timestamp;temperature;humidity
13389;DHT22;6764;53.250;10.410;2023-12-20T00:00:24;7.70;99.90
13389;DHT22;6764;53.250;10.410;2023-12-20T00:02:50;7.70;99.90
13389;DHT22;6764;53.250;10.410;2023-12-20T00:05:15;7.60;99.90
13389;DHT22;6764;53.250;10.410;2023-12-20T00:07:41;7.60;99.90
13389;DHT22;6764;53.250;10.410;2023-12-20T00:10:07;7.50;99.90
13389;DHT22;6764;53.250;10.410;2023-12-20T00:12:33;7.50;99.90
13389;DHT22;6764;53.250;10.410;2023-12-20T00:14:58;7.50;99.90
13389;DHT22;6764;53.250;10.410;2023-12-20T00:17:24;7.50;99.90
13389;DHT22;6764;53.250;10.410;2023-12-20T00:19:49;7.50;99.90
13389;DHT22;6764;53.250;10.410;2023-12-20T00:22:15;7.40;99.90
13389;DHT22;6764;53.250;10.410;2023-12-20T00:24:41;7.50;99.90
13389;DHT22;6764;53.250;10.410;2023-12-20T00:27:06;7.50;99.90
13389;DHT22;6764;53.250;10.410;2023-12-20T00:29:32;7.50;99.90
13389;DHT22;6764;53.250;10.410;2023-12-20T00:31:57;7.50;99.90
13389;DHT22;6764;53.250;10.410;2023-12-20T00:34:23;7.50;99.90
13389;DHT22;6764;53.250;10.410;2023-12-20T00:36:48;7.50;99.90
13389;DHT22;6764;53.250;10.410;2023-12-20T00:39:14;7.50;99.90
13389;DHT22;6764;53.250;10.410;2023-12-20T00:41:40;7.40;99.90
13389;DHT22;6764;53.250;10.410;2023-12-20T00:44:05;7.30;99.90
13389;DHT22;6764;53.250;10.410;2023-12-20T00:46:31;7.30;99.90
13389;DHT22;6764;53.250;10.410;2023-12-20T00:48:56;7.20;99.90
13389;DHT22;6764;53.250;10.410;2023-12-20T00:51:22;7.20;99.90
13389;DHT22;6764;53.250;10.410;2023-12-20T00:53:50;7.20;99.90
13389;DHT22;6764;53.250;10.410;2023-12-20T00:56:15;7.20;99.90
13389;DHT22;6764;53.250;10.410;2023-12-20T00:58:41;7.20;99.90
13389;DHT22;6764;53.250;10.410;2023-12-20T01:01:07;7.20;99.90
13389;DHT22;6764;53.250;10.410;2023-12-20T01:03:32;7.20;99.90
13389;DHT22;6764;53.250;10.410;2023-12-20T01:05:58;7.10;99.90
13389;DHT22;6764;53.250;10.410;2023-12-20T01:08:23;7.10;99.90
13389;DHT22;6764;53.250;10.410;2023-12-20T01:10:49;7.10;99.90
13389;DHT22;6764;53.250;10.410;2023-12-20T01:13:15;7.10;99.90
13389;DHT22;6764;53.250;10.410;2023-12-20T01:15:40;7.00;99.90
13389;DHT22;6764;53.250;10.410;2023-12-20T01:18:06;7.10;99.90
13389;DHT22;6764;53.250;10.410;2023-12-20T01:20:32;7.00;99.90
13389;DHT22;6764;53.250;10.410;2023-12-20T01:22:58;7.10;99.90
13389;DHT22;6764;53.250;10.410;2023-12-20T01:25:23;7.00;99.90
13389;DHT22;6764;53.250;10.410;2023-12-20T01:27:49;7.10;99.90
13389;DHT22;6764;53.250;10.410;2023-12-20T01:30:15;7.00;99.90
13389;DHT22;6764;53.250;10.410;2023-12-20T01:32:40;7.10;99.90
13389;DHT22;6764;53.250;10.410;2023-12-20T01:35:06;7.10;99.90
13389;DHT22;6764;53.250;10.410;2023-12-20T01:37:32;7.10;99.90
13389;DHT22;6764;53.250;10.410;2023-12-20T01:39:57;7.20;99.90
13389;DHT22;6764;53.250;10.410;2023-12-20T01:42:24;7.20;99.90
13389;DHT22;6764;53.250;10.410;2023-12-20T01:44:49;7.20;99.90
13389;DHT22;6764;53.250;10.410;2023-12-20T01:47:15;7.20;99.90
13389;DHT22;6764;53.250;10.410;2023-12-20T01:49:41;7.20;99.90
13389;DHT22;6764;53.250;10.410;2023-12-20T01:52:08;7.10;99.90
13389;DHT22;6764;53.250;10.410;2023-12-20T01:54:34;7.20;99.90
13389;DHT22;6764;53.250;10.410;2023-12-20T01:57:01;7.20;99.90
13389;DHT22;6764;53.250;10.410;2023-12-20T01:59:28;7.20;99.90
13389;DHT22;6764;53.250;10.410;2023-12-20T02:01:55;7.10;99.90
13389;DHT22;6764;53.250;10.410;2023-12-20T02:04:23;7.00;99.90
13389;DHT22;6764;53.250;10.410;2023-12-20T02:06:52;7.00;99.90
13389;DHT22;6764;53.250;10.410;2023-12-20T02:09:18;7.00;99.90
13389;DHT22;6764;53.250;10.410;2023-12-20T02:11:44;6.90;99.90
13389;DHT22;6764;53.250;10.410;2023-12-20T02:14:09;6.90;99.90
13389;DHT22;6764;53.250;10.410;2023-12-20T02:16:35;6.90;99.90
13389;DHT22;6764;53.250;10.410;2023-12-20T02:19:00;6.90;99.90
13389;DHT22;6764;53.250;10.410;2023-12-20T02:21:34;6.80;99.90
13389;DHT22;6764;53.250;10.410;2023-12-20T02:24:00;6.80;99.90
13389;DHT22;6764;53.250;10.410;2023-12-20T02:26:26;6.80;99.90
13389;DHT22;6764;53.250;10.410;2023-12-20T02:28:52;6.70;99.90
13389;DHT22;6764;53.250;10.410;2023-12-20T02:31:21;6.70;99.90
13389;DHT22;6764;53.250;10.410;2023-12-20T02:33:47;6.70;99.90
13389;DHT22;6764;53.250;10.410;2023-12-20T02:36:13;6.70;99.90
13389;DHT22;6764;53.250;10.410;2023-12-20T02:38:38;6.70;99.90
13389;DHT22;6764;53.250;10.410;2023-12-20T02:41:04;6.70;99.90
13389;DHT22;6764;53.250;10.410;2023-12-20T02:43:30;6.70;99.90
13389;DHT22;6764;53.250;10.410;2023-12-20T02:45:55;6.70;99.90
13389;DHT22;6764;53.250;10.410;2023-12-20T02:48:21;6.70;99.90
13389;DHT22;6764;53.250;10.410;2023-12-20T02:50:47;6.60;99.90
13389;DHT22;6764;53.250;10.410;2023-12-20T02:53:14;6.60;99.90
13389;DHT22;6764;53.250;10.410;2023-12-20T02:55:40;6.60;99.90
13389;DHT22;6764;53.250;10.410;2023-12-20T02:58:05;6.50;99.90
13389;DHT22;6764;53.250;10.410;2023-12-20T03:00:31;6.50;99.90
13389;DHT22;6764;53.250;10.410;2023-12-20T03:02:57;6.50;99.90
13389;DHT22;6764;53.250;10.410;2023-12-20T03:05:22;6.60;99.90
13389;DHT22;6764;53.250;10.410;2023-12-20T03:07:48;6.60;99.90
13389;DHT22;6764;53.250;10.410;2023-12-20T03:10:13;6.50;99.90
13389;DHT22;6764;53.250;10.410;2023-12-20T03:12:39;6.50;99.90
13389;DHT22;6764;53.250;10.410;2023-12-20T03:15:06;6.50;99.90
13389;DHT22;6764;53.250;10.410;2023-12-20T03:17:32;6.50;99.90
13389;DHT22;6764;53.250;10.410;2023-12-20T03:19:57;6.50;99.90
13389;DHT22;6764;53.250;10.410;2023-12-20T03:22:23;6.50;99.90
13389;DHT22;6764;53.250;10.410;2023-12-20T03:24:49;6.50;99.90
13389;DHT22;6764;53.250;10.410;2023-12-20T03:27:14;6.50;99.90
13389;DHT22;6764;53.250;10.410;2023-12-20T03:29:40;6.40;99.90
13389;DHT22;6764;53.250;10.410;2023-12-20T03:32:05;6.50;99.90
13389;DHT22;6764;53.250;10.410;2023-12-20T03:34:31;6.40;99.90
13389;DHT22;6764;53.250;10.410;2023-12-20T03:36:57;6.40;99.90
13389;DHT22;6764;53.250;10.410;2023-12-20T03:39:22;6.40;99.90
13389;DHT22;6764;53.250;10.410;2023-12-20T03:41:48;6.40;99.90
13389;DHT22;6764;53.250;10.410;2023-12-20T03:44:13;6.30;99.90
13389;DHT22;6764;53.250;10.410;2023-12-20T03:46:39;6.40;99.90
13389;DHT22;6764;53.250;10.410;2023-12-20T03:49:05;6.40;99.90
13389;DHT22;6764;53.250;10.410;2023-12-20T03:51:31;6.40;99.90
13389;DHT22;6764;53.250;10.410;2023-12-20T03:53:56;6.40;99.90
13389;DHT22;6764;53.250;10.410;2023-12-20T03:56:22;6.40;99.90
13389;DHT22;6764;53.250;10.410;2023-12-20T03:58:50;6.40;99.90
13389;DHT22;6764;53.250;10.410;2023-12-20T04:01:16;6.40;99.90
13389;DHT22;6764;53.250;10.410;2023-12-20T04:03:41;6.40;99.90
13389;DHT22;6764;53.250;10.410;2023-12-20T04:06:07;6.40;99.90
13389;DHT22;6764;53.250;10.410;2023-12-20T04:08:32;6.40;99.90
13389;DHT22;6764;53.250;10.410;2023-12-20T04:10:58;6.50;99.90
13389;DHT22;6764;53.250;10.410;2023-12-20T04:13:23;6.50;99.90
13389;DHT22;6764;53.250;10.410;2023-12-20T04:15:49;6.50;99.90
13389;DHT22;6764;53.250;10.410;2023-12-20T04:18:16;6.60;99.90
13389;DHT22;6764;53.250;10.410;2023-12-20T04:20:42;6.60;99.90
13389;DHT22;6764;53.250;10.410;2023-12-20T04:23:07;6.60;99.90
13389;DHT22;6764;53.250;10.410;2023-12-20T04:25:33;6.60;99.90
13389;DHT22;6764;53.250;10.410;2023-12-20T04:27:58;6.60;99.90
13389;DHT22;6764;53.250;10.410;2023-12-20T04:30:24;6.60;99.90
13389;DHT22;6764;53.250;10.410;2023-12-20T04:32:49;6.70;99.90
13389;DHT22;6764;53.250;10.410;2023-12-20T04:35:15;6.70;99.90
13389;DHT22;6764;53.250;10.410;2023-12-20T04:37:40;6.60;99.90
13389;DHT22;6764;53.250;10.410;2023-12-20T04:40:07;6.60;99.90
13389;DHT22;6764;53.250;10.410;2023-12-20T04:42:33;6.60;99.90
13389;DHT22;6764;53.250;10.410;2023-12-20T04:44:59;6.60;99.90
13389;DHT22;6764;53.250;10.410;2023-12-20T04:47:24;6.60;99.90
13389;DHT22;6764;53.250;10.410;2023-12-20T04:49:50;6.70;99.90
13389;DHT22;6764;53.250;10.410;2023-12-20T04:52:15;6.70;99.90
13389;DHT22;6764;53.250;10.410;2023-12-20T04:54:41;6.70;99.90
13389;DHT22;6764;53.250;10.410;2023-12-20T04:57:07;6.80;99.90
13389;DHT22;6764;53.250;10.410;2023-12-20T04:59:32;6.80;99.90
13389;DHT22;6764;53.250;10.410;2023-12-20T05:01:58;6.70;99.90
13389;DHT22;6764;53.250;10.410;2023-12-20T05:04:24;6.70;99.90
13389;DHT22;6764;53.250;10.410;2023-12-20T05:06:49;6.70;99.90
13389;DHT22;6764;53.250;10.410;2023-12-20T05:09:15;6.70;99.90
13389;DHT22;6764;53.250;10.410;2023-12-20T05:11:41;6.70;99.90
13389;DHT22;6764;53.250;10.410;2023-12-20T05:14:07;6.70;99.90
13389;DHT22;6764;53.250;10.410;2023-12-20T05:16:32;6.80;99.90
13389;DHT22;6764;53.250;10.410;2023-12-20T05:18:58;6.80;99.90
13389;DHT22;6764;53.250;10.410;2023-12-20T05:21:26;6.80;99.90
13389;DHT22;6764;53.250;10.410;2023-12-20T05:23:52;6.80;99.90
13389;DHT22;6764;53.250;10.410;2023-12-20T05:26:17;6.80;99.90
13389;DHT22;6764;53.250;10.410;2023-12-20T05:28:43;6.80;99.90
13389;DHT22;6764;53.250;10.410;2023-12-20T05:31:09;6.80;99.90
13389;DHT22;6764;53.250;10.410;2023-12-20T05:33:35;6.80;99.90
13389;DHT22;6764;53.250;10.410;2023-12-20T05:36:00;6.80;99.90
13389;DHT22;6764;53.250;10.410;2023-12-20T05:38:26;6.80;99.90
13389;DHT22;6764;53.250;10.410;2023-12-20T05:40:51;6.80;99.90
13389;DHT22;6764;53.250;10.410;2023-12-20T05:43:17;6.90;99.90
13389;DHT22;6764;53.250;10.410;2023-12-20T05:45:43;6.90;99.90
13389;DHT22;6764;53.250;10.410;2023-12-20T05:48:08;6.90;99.90
13389;DHT22;6764;53.250;10.410;2023-12-20T05:50:34;6.90;99.90
13389;DHT22;6764;53.250;10.410;2023-12-20T05:53:00;6.80;99.90
13389;DHT22;6764;53.250;10.410;2023-12-20T05:55:26;6.80;99.90
13389;DHT22;6764;53.250;10.410;2023-12-20T05:57:51;6.80;99.90
13389;DHT22;6764;53.250;10.410;2023-12-20T06:00:18;6.80;99.90
13389;DHT22;6764;53.250;10.410;2023-12-20T06:02:44;6.90;99.90
13389;DHT22;6764;53.250;10.410;2023-12-20T06:05:09;6.90;99.90
13389;DHT22;6764;53.250;10.410;2023-12-20T06:07:35;6.90;99.90
13389;DHT22;6764;53.250;10.410;2023-12-20T06:10:00;7.00;99.90
13389;DHT22;6764;53.250;10.410;2023-12-20T06:12:26;7.00;99.90
13389;DHT22;6764;53.250;10.410;2023-12-20T06:14:54;7.00;99.90
13389;DHT22;6764;53.250;10.410;2023-12-20T06:17:19;7.10;99.90
13389;DHT22;6764;53.250;10.410;2023-12-20T06:19:45;7.10;99.90
13389;DHT22;6764;53.250;10.410;2023-12-20T06:22:14;7.10;99.90
13389;DHT22;6764;53.250;10.410;2023-12-20T06:24:39;7.00;99.90
13389;DHT22;6764;53.250;10.410;2023-12-20T06:27:05;7.10;99.90
13389;DHT22;6764;53.250;10.410;2023-12-20T06:29:30;7.10;99.90
13389;DHT22;6764;53.250;10.410;2023-12-20T06:31:56;7.00;99.90
13389;DHT22;6764;53.250;10.410;2023-12-20T06:34:22;7.00;99.90
13389;DHT22;6764;53.250;10.410;2023-12-20T06:36:47;7.00;99.90
13389;DHT22;6764;53.250;10.410;2023-12-20T06:39:13;7.00;99.90
13389;DHT22;6764;53.250;10.410;2023-12-20T06:41:39;7.10;99.90
13389;DHT22;6764;53.250;10.410;2023-12-20T06:44:05;7.00;99.90
13389;DHT22;6764;53.250;10.410;2023-12-20T06:46:30;7.00;99.90
13389;DHT22;6764;53.250;10.410;2023-12-20T06:48:56;7.10;99.90
13389;DHT22;6764;53.250;10.410;2023-12-20T06:51:22;7.10;99.90
13389;DHT22;6764;53.250;10.410;2023-12-20T06:53:51;7.10;99.90
13389;DHT22;6764;53.250;10.410;2023-12-20T06:56:17;7.10;99.90
13389;DHT22;6764;53.250;10.410;2023-12-20T06:58:42;7.10;99.90
13389;DHT22;6764;53.250;10.410;2023-12-20T07:01:12;7.10;99.90
13389;DHT22;6764;53.250;10.410;2023-12-20T07:03:38;7.00;99.90
13389;DHT22;6764;53.250;10.410;2023-12-20T07:06:04;7.00;99.90
13389;DHT22;6764;53.250;10.410;2023-12-20T07:08:30;7.00;99.90
13389;DHT22;6764;53.250;10.410;2023-12-20T07:10:55;7.00;99.90
13389;DHT22;6764;53.250;10.410;2023-12-20T07:13:21;7.10;99.90
13389;DHT22;6764;53.250;10.410;2023-12-20T07:15:48;7.10;99.90
13389;DHT22;6764;53.250;10.410;2023-12-20T07:18:14;7.00;99.90
13389;DHT22;6764;53.250;10.410;2023-12-20T07:20:39;7.00;99.90
13389;DHT22;6764;53.250;10.410;2023-12-20T07:23:05;7.00;99.90
13389;DHT22;6764;53.250;10.410;2023-12-20T07:25:30;7.00;99.90
13389;DHT22;6764;53.250;10.410;2023-12-20T07:27:58;7.00;99.90
13389;DHT22;6764;53.250;10.410;2023-12-20T07:30:24;7.00;99.90
13389;DHT22;6764;53.250;10.410;2023-12-20T07:32:49;7.00;99.90
13389;DHT22;6764;53.250;10.410;2023-12-20T07:35:16;7.10;99.90
13389;DHT22;6764;53.250;10.410;2023-12-20T07:37:41;7.00;99.90
13389;DHT22;6764;53.250;10.410;2023-12-20T07:40:07;7.10;99.90
13389;DHT22;6764;53.250;10.410;2023-12-20T07:42:33;7.20;99.90
13389;DHT22;6764;53.250;10.410;2023-12-20T07:44:59;7.10;99.90
13389;DHT22;6764;53.250;10.410;2023-12-20T07:47:24;7.20;99.90
13389;DHT22;6764;53.250;10.410;2023-12-20T07:49:51;7.20;99.90
13389;DHT22;6764;53.250;10.410;2023-12-20T07:52:18;7.20;99.90
13389;DHT22;6764;53.250;10.410;2023-12-20T07:54:44;7.20;99.90
13389;DHT22;6764;53.250;10.410;2023-12-20T07:57:10;7.30;99.90
13389;DHT22;6764;53.250;10.410;2023-12-20T07:59:36;7.20;99.90
13389;DHT22;6764;53.250;10.410;2023-12-20T08:02:02;7.20;99.90
13389;DHT22;6764;53.250;10.410;2023-12-20T08:04:27;7.10;99.90
13389;DHT22;6764;53.250;10.410;2023-12-20T08:06:53;7.20;99.90
13389;DHT22;6764;53.250;10.410;2023-12-20T08:09:19;7.20;99.90
13389;DHT22;6764;53.250;10.410;2023-12-20T08:11:45;7.20;99.90
13389;DHT22;6764;53.250;10.410;2023-12-20T08:14:11;7.20;99.90
13389;DHT22;6764;53.250;10.410;2023-12-20T08:16:37;7.20;99.90
13389;DHT22;6764;53.250;10.410;2023-12-20T08:19:03;7.20;99.90
13389;DHT22;6764;53.250;10.410;2023-12-20T08:21:28;7.30;99.90
13389;DHT22;6764;53.250;10.410;2023-12-20T08:23:54;7.30;99.90
13389;DHT22;6764;53.250;10.410;2023-12-20T08:26:20;7.30;99.90
13389;DHT22;6764;53.250;10.410;2023-12-20T08:28:47;7.30;99.90
13389;DHT22;6764;53.250;10.410;2023-12-20T08:31:19;7.30;99.90
13389;DHT22;6764;53.250;10.410;2023-12-20T08:33:45;7.30;99.90
13389;DHT22;6764;53.250;10.410;2023-12-20T08:36:12;7.30;99.90
13389;DHT22;6764;53.250;10.410;2023-12-20T08:38:38;7.30;99.90
13389;DHT22;6764;53.250;10.410;2023-12-20T08:41:03;7.30;99.90
13389;DHT22;6764;53.250;10.410;2023-12-20T08:43:39;7.40;99.90
13389;DHT22;6764;53.250;10.410;2023-12-20T08:46:08;7.40;99.90
13389;DHT22;6764;53.250;10.410;2023-12-20T08:48:37;7.30;99.90
13389;DHT22;6764;53.250;10.410;2023-12-20T08:51:03;7.30;99.90
13389;DHT22;6764;53.250;10.410;2023-12-20T08:53:29;7.40;99.90
13389;DHT22;6764;53.250;10.410;2023-12-20T08:55:55;7.30;99.90
13389;DHT22;6764;53.250;10.410;2023-12-20T08:58:20;7.30;99.90
13389;DHT22;6764;53.250;10.410;2023-12-20T09:00:46;7.40;99.90
13389;DHT22;6764;53.250;10.410;2023-12-20T09:03:12;7.50;99.90
13389;DHT22;6764;53.250;10.410;2023-12-20T09:05:37;7.40;99.90
13389;DHT22;6764;53.250;10.410;2023-12-20T09:08:03;7.50;99.90
13389;DHT22;6764;53.250;10.410;2023-12-20T09:10:29;7.50;99.90
13389;DHT22;6764;53.250;10.410;2023-12-20T09:12:54;7.50;99.90
13389;DHT22;6764;53.250;10.410;2023-12-20T09:15:26;7.60;99.90
13389;DHT22;6764;53.250;10.410;2023-12-20T09:17:52;7.60;99.90
13389;DHT22;6764;53.250;10.410;2023-12-20T09:20:19;7.60;99.90
13389;DHT22;6764;53.250;10.410;2023-12-20T09:22:44;7.50;99.90
13389;DHT22;6764;53.250;10.410;2023-12-20T09:25:10;7.50;99.90
13389;DHT22;6764;53.250;10.410;2023-12-20T09:27:37;7.40;99.90
13389;DHT22;6764;53.250;10.410;2023-12-20T09:30:03;7.50;99.90
13389;DHT22;6764;53.250;10.410;2023-12-20T09:32:30;7.50;99.90
13389;DHT22;6764;53.250;10.410;2023-12-20T09:34:56;7.50;99.90
13389;DHT22;6764;53.250;10.410;2023-12-20T09:37:21;7.40;99.90
13389;DHT22;6764;53.250;10.410;2023-12-20T09:39:47;7.40;99.90
13389;DHT22;6764;53.250;10.410;2023-12-20T09:42:17;7.50;99.90
13389;DHT22;6764;53.250;10.410;2023-12-20T09:44:47;7.50;99.90
13389;DHT22;6764;53.250;10.410;2023-12-20T09:47:14;7.40;99.90
13389;DHT22;6764;53.250;10.410;2023-12-20T09:49:42;7.40;99.90
13389;DHT22;6764;53.250;10.410;2023-12-20T09:52:09;7.40;99.90
13389;DHT22;6764;53.250;10.410;2023-12-20T09:54:36;7.50;99.90
13389;DHT22;6764;53.250;10.410;2023-12-20T09:57:02;7.50;99.90
13389;DHT22;6764;53.250;10.410;2023-12-20T09:59:27;7.50;99.90
13389;DHT22;6764;53.250;10.410;2023-12-20T10:01:55;7.50;99.90
13389;DHT22;6764;53.250;10.410;2023-12-20T10:04:22;7.50;99.90
13389;DHT22;6764;53.250;10.410;2023-12-20T10:06:47;7.60;99.90
13389;DHT22;6764;53.250;10.410;2023-12-20T10:09:13;7.30;99.90
13389;DHT22;6764;53.250;10.410;2023-12-20T10:11:40;7.20;99.90
13389;DHT22;6764;53.250;10.410;2023-12-20T10:14:06;7.20;99.90
13389;DHT22;6764;53.250;10.410;2023-12-20T10:16:32;7.20;99.90
13389;DHT22;6764;53.250;10.410;2023-12-20T10:19:01;7.20;99.90
13389;DHT22;6764;53.250;10.410;2023-12-20T10:21:27;7.40;99.90
13389;DHT22;6764;53.250;10.410;2023-12-20T10:23:54;7.40;99.90
13389;DHT22;6764;53.250;10.410;2023-12-20T10:26:24;7.30;99.90
13389;DHT22;6764;53.250;10.410;2023-12-20T10:28:55;7.30;99.90
13389;DHT22;6764;53.250;10.410;2023-12-20T10:34:00;7.30;99.90
13389;DHT22;6764;53.250;10.410;2023-12-20T10:36:31;7.20;99.90
13389;DHT22;6764;53.250;10.410;2023-12-20T10:38:57;7.20;99.90
13389;DHT22;6764;53.250;10.410;2023-12-20T10:41:27;7.30;99.90
13389;DHT22;6764;53.250;10.410;2023-12-20T10:44:04;7.30;99.90
13389;DHT22;6764;53.250;10.410;2023-12-20T10:46:36;7.20;99.90
13389;DHT22;6764;53.250;10.410;2023-12-20T10:49:02;7.20;99.90
13389;DHT22;6764;53.250;10.410;2023-12-20T10:51:28;7.20;99.90
13389;DHT22;6764;53.250;10.410;2023-12-20T10:53:57;7.10;99.90
13389;DHT22;6764;53.250;10.410;2023-12-20T10:56:23;7.10;99.90
13389;DHT22;6764;53.250;10.410;2023-12-20T10:58:49;7.20;99.90
13389;DHT22;6764;53.250;10.410;2023-12-20T11:01:17;7.20;99.90
13389;DHT22;6764;53.250;10.410;2023-12-20T11:03:51;7.20;99.90
13389;DHT22;6764;53.250;10.410;2023-12-20T11:06:27;7.30;99.90
13389;DHT22;6764;53.250;10.410;2023-12-20T11:14:08;7.30;99.90
13389;DHT22;6764;53.250;10.410;2023-12-20T11:16:38;7.30;99.90
13389;DHT22;6764;53.250;10.410;2023-12-20T11:19:06;7.20;99.90
13389;DHT22;6764;53.250;10.410;2023-12-20T11:21:32;7.20;99.90
13389;DHT22;6764;53.250;10.410;2023-12-20T11:23:59;7.20;99.90
13389;DHT22;6764;53.250;10.410;2023-12-20T11:26:29;7.30;99.90
13389;DHT22;6764;53.250;10.410;2023-12-20T11:31:56;7.20;99.90
13389;DHT22;6764;53.250;10.410;2023-12-20T11:34:22;7.30;99.90
13389;DHT22;6764;53.250;10.410;2023-12-20T11:36:47;7.20;99.90
13389;DHT22;6764;53.250;10.410;2023-12-20T11:39:21;7.20;99.90
13389;DHT22;6764;53.250;10.410;2023-12-20T11:41:46;7.20;99.90
13389;DHT22;6764;53.250;10.410;2023-12-20T11:44:14;7.20;99.90
13389;DHT22;6764;53.250;10.410;2023-12-20T11:46:40;7.10;99.90
13389;DHT22;6764;53.250;10.410;2023-12-20T11:49:06;7.10;99.90
13389;DHT22;6764;53.250;10.410;2023-12-20T11:51:34;7.20;99.90
13389;DHT22;6764;53.250;10.410;2023-12-20T11:53:59;7.20;99.90
13389;DHT22;6764;53.250;10.410;2023-12-20T11:56:25;7.20;99.90
13389;DHT22;6764;53.250;10.410;2023-12-20T11:58:50;7.10;99.90
13389;DHT22;6764;53.250;10.410;2023-12-20T12:01:16;7.20;99.90
13389;DHT22;6764;53.250;10.410;2023-12-20T12:03:42;7.40;99.90
13389;DHT22;6764;53.250;10.410;2023-12-20T12:06:08;7.30;99.90
13389;DHT22;6764;53.250;10.410;2023-12-20T12:08:35;7.50;99.90
13389;DHT22;6764;53.250;10.410;2023-12-20T12:11:01;7.60;99.90
13389;DHT22;6764;53.250;10.410;2023-12-20T12:13:27;7.50;99.90
13389;DHT22;6764;53.250;10.410;2023-12-20T12:15:53;7.40;99.90
13389;DHT22;6764;53.250;10.410;2023-12-20T12:18:19;7.50;99.90
13389;DHT22;6764;53.250;10.410;2023-12-20T12:20:45;7.50;99.90
13389;DHT22;6764;53.250;10.410;2023-12-20T12:23:13;7.70;99.90
13389;DHT22;6764;53.250;10.410;2023-12-20T12:25:41;7.80;99.90
13389;DHT22;6764;53.250;10.410;2023-12-20T12:28:07;7.80;99.90
13389;DHT22;6764;53.250;10.410;2023-12-20T12:30:32;7.70;99.90
13389;DHT22;6764;53.250;10.410;2023-12-20T12:32:58;7.80;99.90
13389;DHT22;6764;53.250;10.410;2023-12-20T12:35:24;7.90;99.90
13389;DHT22;6764;53.250;10.410;2023-12-20T12:37:49;8.00;99.90
13389;DHT22;6764;53.250;10.410;2023-12-20T12:40:17;8.00;99.90
13389;DHT22;6764;53.250;10.410;2023-12-20T12:42:43;8.00;99.90
13389;DHT22;6764;53.250;10.410;2023-12-20T12:45:10;7.80;99.90
13389;DHT22;6764;53.250;10.410;2023-12-20T12:47:39;7.70;99.90
13389;DHT22;6764;53.250;10.410;2023-12-20T12:50:05;7.70;99.90
13389;DHT22;6764;53.250;10.410;2023-12-20T12:52:31;7.70;99.90
13389;DHT22;6764;53.250;10.410;2023-12-20T12:54:57;7.70;99.90
13389;DHT22;6764;53.250;10.410;2023-12-20T12:57:22;7.70;99.90
13389;DHT22;6764;53.250;10.410;2023-12-20T12:59:49;7.70;99.90
13389;DHT22;6764;53.250;10.410;2023-12-20T13:02:16;7.60;99.90
13389;DHT22;6764;53.250;10.410;2023-12-20T13:04:42;7.60;99.90
13389;DHT22;6764;53.250;10.410;2023-12-20T13:07:08;7.60;99.90
13389;DHT22;6764;53.250;10.410;2023-12-20T13:09:38;7.50;99.90
13389;DHT22;6764;53.250;10.410;2023-12-20T13:12:04;7.50;99.90
13389;DHT22;6764;53.250;10.410;2023-12-20T13:14:32;7.30;99.90
13389;DHT22;6764;53.250;10.410;2023-12-20T13:16:58;7.40;99.90
13389;DHT22;6764;53.250;10.410;2023-12-20T13:19:24;7.30;99.90
13389;DHT22;6764;53.250;10.410;2023-12-20T13:21:50;7.30;99.90
13389;DHT22;6764;53.250;10.410;2023-12-20T13:24:15;7.30;99.90
13389;DHT22;6764;53.250;10.410;2023-12-20T13:26:41;7.20;99.90
13389;DHT22;6764;53.250;10.410;2023-12-20T13:29:06;7.20;99.90
13389;DHT22;6764;53.250;10.410;2023-12-20T13:31:32;7.30;99.90
13389;DHT22;6764;53.250;10.410;2023-12-20T13:33:58;7.20;99.90
13389;DHT22;6764;53.250;10.410;2023-12-20T13:36:23;7.20;99.90
13389;DHT22;6764;53.250;10.410;2023-12-20T13:38:49;7.10;99.90
13389;DHT22;6764;53.250;10.410;2023-12-20T13:41:15;7.10;99.90
13389;DHT22;6764;53.250;10.410;2023-12-20T13:43:41;7.10;99.90
13389;DHT22;6764;53.250;10.410;2023-12-20T13:46:06;7.10;99.90
13389;DHT22;6764;53.250;10.410;2023-12-20T13:48:32;7.00;99.90
13389;DHT22;6764;53.250;10.410;2023-12-20T13:50:58;7.00;99.90
13389;DHT22;6764;53.250;10.410;2023-12-20T13:53:23;7.00;99.90
13389;DHT22;6764;53.250;10.410;2023-12-20T13:55:49;7.10;99.90
13389;DHT22;6764;53.250;10.410;2023-12-20T13:58:15;7.10;99.90
13389;DHT22;6764;53.250;10.410;2023-12-20T14:00:40;7.20;99.90
13389;DHT22;6764;53.250;10.410;2023-12-20T14:03:06;7.20;99.90
13389;DHT22;6764;53.250;10.410;2023-12-20T14:05:32;7.20;99.90
13389;DHT22;6764;53.250;10.410;2023-12-20T14:07:58;7.20;99.90
13389;DHT22;6764;53.250;10.410;2023-12-20T14:10:24;7.10;99.90
13389;DHT22;6764;53.250;10.410;2023-12-20T14:12:54;7.10;99.90
13389;DHT22;6764;53.250;10.410;2023-12-20T14:15:20;7.10;99.90
13389;DHT22;6764;53.250;10.410;2023-12-20T14:17:45;7.10;99.90
13389;DHT22;6764;53.250;10.410;2023-12-20T14:20:11;7.10;99.90
13389;DHT22;6764;53.250;10.410;2023-12-20T14:22:40;7.00;99.90
13389;DHT22;6764;53.250;10.410;2023-12-20T14:25:13;7.00;99.90
13389;DHT22;6764;53.250;10.410;2023-12-20T14:27:39;7.10;99.90
13389;DHT22;6764;53.250;10.410;2023-12-20T14:30:06;7.20;99.90
13389;DHT22;6764;53.250;10.410;2023-12-20T14:32:34;7.10;99.90
13389;DHT22;6764;53.250;10.410;2023-12-20T14:35:00;7.20;99.90
13389;DHT22;6764;53.250;10.410;2023-12-20T14:37:25;7.20;99.90
13389;DHT22;6764;53.250;10.410;2023-12-20T14:39:51;7.30;99.90
13389;DHT22;6764;53.250;10.410;2023-12-20T14:42:16;7.30;99.90
13389;DHT22;6764;53.250;10.410;2023-12-20T14:44:42;7.20;99.90
13389;DHT22;6764;53.250;10.410;2023-12-20T14:47:08;7.10;99.90
13389;DHT22;6764;53.250;10.410;2023-12-20T14:49:34;7.10;99.90
13389;DHT22;6764;53.250;10.410;2023-12-20T14:52:01;7.10;99.90
13389;DHT22;6764;53.250;10.410;2023-12-20T14:54:26;7.10;99.90
13389;DHT22;6764;53.250;10.410;2023-12-20T14:56:52;7.20;99.90
13389;DHT22;6764;53.250;10.410;2023-12-20T14:59:17;7.30;99.90
13389;DHT22;6764;53.250;10.410;2023-12-20T15:01:43;7.20;99.90
13389;DHT22;6764;53.250;10.410;2023-12-20T15:04:09;7.20;99.90
13389;DHT22;6764;53.250;10.410;2023-12-20T15:06:36;7.00;99.90
13389;DHT22;6764;53.250;10.410;2023-12-20T15:11:45;7.20;99.90
13389;DHT22;6764;53.250;10.410;2023-12-20T15:14:11;7.20;99.90
13389;DHT22;6764;53.250;10.410;2023-12-20T15:16:39;7.20;99.90
13389;DHT22;6764;53.250;10.410;2023-12-20T15:19:05;7.00;99.90
13389;DHT22;6764;53.250;10.410;2023-12-20T15:21:31;7.00;99.90
13389;DHT22;6764;53.250;10.410;2023-12-20T15:23:57;6.90;99.90
13389;DHT22;6764;53.250;10.410;2023-12-20T15:26:34;6.90;99.90
13389;DHT22;6764;53.250;10.410;2023-12-20T15:29:03;6.90;99.90
13389;DHT22;6764;53.250;10.410;2023-12-20T15:31:30;6.90;99.90
13389;DHT22;6764;53.250;10.410;2023-12-20T15:33:56;6.90;99.90
13389;DHT22;6764;53.250;10.410;2023-12-20T15:36:22;6.90;99.90
13389;DHT22;6764;53.250;10.410;2023-12-20T15:38:48;6.90;99.90
13389;DHT22;6764;53.250;10.410;2023-12-20T15:41:21;7.10;99.90
13389;DHT22;6764;53.250;10.410;2023-12-20T15:43:47;7.20;99.90
13389;DHT22;6764;53.250;10.410;2023-12-20T15:46:13;7.20;99.90
13389;DHT22;6764;53.250;10.410;2023-12-20T15:48:39;7.30;99.90
13389;DHT22;6764;53.250;10.410;2023-12-20T15:51:05;7.20;99.90